Hibbing, Minnesota
Current Conditions -  °F | °C
As of 3:53 AM on Saturday 29 Nov 2014 (Local Time) from KHIB Reporting Station
Overcast Overcast  
Wind Chill: 10°   Ceiling: 800
Heat Index: 19°   Visibility: 10mi
Dew Point: 14°   Wind: 7mph
Humidity: 81%   Direction: 140°SE
Pressure: 29.54"   Gusts: NA
Location:  47.42°N, 92.94°W
Report Text: KHIB 290953Z AUTO 14006KT 10SM OVC008 M07/M10 A2954 RMK AO2 SLP027 T10721100
Loading
Personal Weather Stations






























Interactive Weather Map New forecast layout! Learn more

10-Day Weather Forecast

Advertisements
Track Severe Weather on mobile